createdAt,value
2023-04-28T00:00:37.827Z,10.10
2023-04-28T00:03:01.259Z,10.10
2023-04-28T00:05:25.185Z,10.00
2023-04-28T00:07:48.513Z,10.00
2023-04-28T00:10:12.187Z,9.90
2023-04-28T00:12:35.493Z,9.80
2023-04-28T00:14:58.727Z,9.90
2023-04-28T00:17:23.568Z,9.80
2023-04-28T00:19:46.955Z,9.70
2023-04-28T00:22:10.266Z,9.80
2023-04-28T00:24:33.891Z,9.80
2023-04-28T00:26:58.815Z,9.60
2023-04-28T00:29:22.175Z,9.70
2023-04-28T00:31:46.475Z,9.60
2023-04-28T00:34:14.405Z,9.60
2023-04-28T00:36:38.137Z,9.60
2023-04-28T00:39:01.446Z,9.50
2023-04-28T00:41:24.850Z,9.60
2023-04-28T00:43:49.504Z,9.50
2023-04-28T00:46:22.542Z,9.50
2023-04-28T00:48:46.159Z,9.50
2023-04-28T00:51:10.857Z,9.50
2023-04-28T00:53:35.391Z,9.50
2023-04-28T00:55:59.373Z,9.40
2023-04-28T00:58:22.792Z,9.30
2023-04-28T01:00:46.695Z,9.30
2023-04-28T01:03:10.591Z,9.30
2023-04-28T01:05:34.853Z,9.30
2023-04-28T01:07:59.830Z,9.30
2023-04-28T01:10:23.248Z,9.30
2023-04-28T01:12:48.216Z,9.20
2023-04-28T01:15:18.818Z,9.30
2023-04-28T01:17:44.825Z,9.20
2023-04-28T01:20:11.398Z,9.20
2023-04-28T01:22:34.782Z,9.20
2023-04-28T01:25:00.284Z,9.20
2023-04-28T01:27:25.076Z,9.10
2023-04-28T01:29:48.369Z,9.10
2023-04-28T01:32:11.901Z,9.10
2023-04-28T01:34:37.077Z,9.20
2023-04-28T01:37:02.571Z,9.10
2023-04-28T01:39:25.978Z,9.10
2023-04-28T01:41:50.615Z,9.10
2023-04-28T01:44:14.259Z,9.10
2023-04-28T01:46:38.075Z,9.20
2023-04-28T01:49:01.572Z,9.10
2023-04-28T01:51:26.846Z,9.10
2023-04-28T01:53:50.131Z,9.10
2023-04-28T01:56:13.405Z,9.10
2023-04-28T01:58:38.860Z,9.00
2023-04-28T02:01:04.829Z,9.00
2023-04-28T02:03:29.038Z,9.00
2023-04-28T02:05:52.476Z,9.10
2023-04-28T02:08:15.797Z,9.10
2023-04-28T02:10:39.309Z,9.10
2023-04-28T02:13:02.705Z,9.10
2023-04-28T02:15:27.862Z,9.10
2023-04-28T02:17:51.252Z,9.10
2023-04-28T02:20:15.406Z,9.20
2023-04-28T02:22:38.772Z,9.30
2023-04-28T02:25:03.350Z,9.20
2023-04-28T02:27:27.027Z,9.30
2023-04-28T02:29:52.627Z,9.30
2023-04-28T02:32:17.264Z,9.30
2023-04-28T02:34:40.507Z,9.40
2023-04-28T02:37:04.386Z,9.40
2023-04-28T02:39:28.143Z,9.40
2023-04-28T02:41:53.332Z,9.40
2023-04-28T02:44:16.690Z,9.40
2023-04-28T02:46:40.120Z,9.50
2023-04-28T02:49:04.927Z,9.50
2023-04-28T02:51:28.603Z,9.40
2023-04-28T02:53:52.372Z,9.40
2023-04-28T02:56:15.700Z,9.50
2023-04-28T02:58:39.041Z,9.50
2023-04-28T03:01:02.381Z,9.50
2023-04-28T03:03:26.026Z,9.50
2023-04-28T03:05:50.741Z,9.50
2023-04-28T03:08:14.451Z,9.50
2023-04-28T03:10:39.162Z,9.50
2023-04-28T03:13:02.511Z,9.50
2023-04-28T03:15:26.730Z,9.50
2023-04-28T03:17:50.187Z,9.50
2023-04-28T03:20:14.818Z,9.50
2023-04-28T03:22:39.510Z,9.50
2023-04-28T03:25:02.945Z,9.50
2023-04-28T03:27:30.606Z,9.60
2023-04-28T03:29:54.425Z,9.60
2023-04-28T03:32:17.855Z,9.60
2023-04-28T03:34:41.635Z,9.70
2023-04-28T03:37:04.885Z,9.70
2023-04-28T03:39:29.507Z,9.70
2023-04-28T03:41:52.833Z,9.70
2023-04-28T03:44:34.370Z,9.70
2023-04-28T03:46:58.304Z,9.70
2023-04-28T03:49:21.693Z,9.70
2023-04-28T03:51:44.924Z,9.80
2023-04-28T03:54:08.439Z,9.70
2023-04-28T03:56:33.913Z,9.80
2023-04-28T03:58:58.657Z,9.80
2023-04-28T04:01:21.827Z,9.70
2023-04-28T04:03:45.589Z,9.80
2023-04-28T04:06:09.380Z,9.80
2023-04-28T04:08:33.286Z,9.80
2023-04-28T04:10:56.891Z,9.80
2023-04-28T04:13:21.849Z,9.80
2023-04-28T04:15:45.234Z,9.90
2023-04-28T04:18:08.737Z,9.80
2023-04-28T04:20:55.921Z,9.90
2023-04-28T04:23:19.734Z,9.90
2023-04-28T04:25:43.237Z,9.90
2023-04-28T04:28:07.306Z,9.90
2023-04-28T04:30:31.935Z,10.00
2023-04-28T04:32:55.212Z,9.90
2023-04-28T04:35:19.032Z,10.00
2023-04-28T04:37:42.973Z,10.00
2023-04-28T04:40:08.535Z,10.00
2023-04-28T04:42:38.024Z,10.00
2023-04-28T04:45:09.246Z,10.10
2023-04-28T04:47:34.394Z,10.00
2023-04-28T04:49:57.891Z,10.10
2023-04-28T04:52:21.260Z,10.10
2023-04-28T04:54:44.424Z,10.10
2023-04-28T04:57:08.130Z,10.10
2023-04-28T04:59:53.868Z,10.10
2023-04-28T05:02:17.699Z,10.20
2023-04-28T05:04:42.694Z,10.10
2023-04-28T05:07:07.293Z,10.20
2023-04-28T05:09:32.059Z,10.20
2023-04-28T05:11:56.754Z,10.20
2023-04-28T05:14:20.044Z,10.10
2023-04-28T05:16:43.672Z,10.10
2023-04-28T05:19:27.279Z,10.10
2023-04-28T05:21:54.608Z,10.10
2023-04-28T05:24:22.073Z,10.20
2023-04-28T05:26:45.564Z,10.20
2023-04-28T05:29:09.044Z,10.20
2023-04-28T05:31:32.493Z,10.20
2023-04-28T05:33:56.542Z,10.20
2023-04-28T05:36:20.132Z,10.20
2023-04-28T05:38:45.445Z,10.20
2023-04-28T05:41:08.967Z,10.20
2023-04-28T05:43:32.287Z,10.20
2023-04-28T05:45:55.885Z,10.30
2023-04-28T05:48:19.482Z,10.30
2023-04-28T05:50:42.828Z,10.30
2023-04-28T05:53:07.819Z,10.30
2023-04-28T05:55:33.804Z,10.30
2023-04-28T05:57:57.047Z,10.40
2023-04-28T06:00:21.761Z,10.40
2023-04-28T06:02:45.418Z,10.50
2023-04-28T06:05:10.729Z,10.50
2023-04-28T06:07:34.305Z,10.50
2023-04-28T06:09:57.557Z,10.50
2023-04-28T06:12:22.338Z,10.50
2023-04-28T06:14:47.369Z,10.60
2023-04-28T06:17:10.677Z,10.50
2023-04-28T06:19:33.983Z,10.60
2023-04-28T06:21:57.300Z,10.70
2023-04-28T06:24:21.047Z,10.90
2023-04-28T06:26:49.091Z,10.90
2023-04-28T06:29:13.831Z,10.90
2023-04-28T06:31:37.465Z,10.90
2023-04-28T06:34:01.187Z,11.00
2023-04-28T06:36:24.731Z,11.00
2023-04-28T06:38:48.201Z,11.00
2023-04-28T06:41:12.320Z,11.10
2023-04-28T06:43:37.429Z,11.10
2023-04-28T06:46:06.639Z,11.20
2023-04-28T06:48:30.221Z,11.30
2023-04-28T06:50:53.678Z,11.30
2023-04-28T06:53:19.076Z,11.40
2023-04-28T06:55:42.693Z,11.50
2023-04-28T06:58:06.075Z,11.60
2023-04-28T07:00:30.606Z,11.70
2023-04-28T07:02:55.523Z,11.90
2023-04-28T07:05:19.107Z,12.00
2023-04-28T07:07:42.561Z,12.10
2023-04-28T07:10:06.969Z,12.00
2023-04-28T07:12:30.191Z,11.90
2023-04-28T07:14:53.384Z,11.80
2023-04-28T07:17:16.729Z,11.90
2023-04-28T07:19:41.392Z,11.80
2023-04-28T07:22:04.811Z,11.80
2023-04-28T07:24:28.452Z,11.90
2023-04-28T07:26:52.179Z,12.10
2023-04-28T07:29:16.225Z,12.20
2023-04-28T07:31:39.463Z,12.10
2023-04-28T07:34:02.801Z,12.20
2023-04-28T07:36:27.431Z,12.10
2023-04-28T07:38:50.940Z,12.00
2023-04-28T07:41:14.216Z,12.10
2023-04-28T07:43:37.494Z,12.30
2023-04-28T07:46:00.889Z,12.50
2023-04-28T07:48:24.326Z,12.50
2023-04-28T07:50:47.655Z,12.50
2023-04-28T07:53:12.407Z,12.50
2023-04-28T07:55:36.539Z,12.50
2023-04-28T07:58:00.022Z,12.50
2023-04-28T08:00:23.420Z,12.50
2023-04-28T08:02:46.770Z,12.40
2023-04-28T08:05:11.372Z,12.30
2023-04-28T08:07:34.862Z,12.30
2023-04-28T08:09:59.746Z,12.40
2023-04-28T08:12:23.114Z,12.40
2023-04-28T08:14:46.428Z,12.40
2023-04-28T08:17:09.998Z,12.40
2023-04-28T08:19:33.672Z,12.50
2023-04-28T08:21:56.949Z,12.40
2023-04-28T08:24:20.338Z,12.50
2023-04-28T08:26:44.973Z,12.40
2023-04-28T08:29:08.649Z,12.60
2023-04-28T08:31:32.039Z,12.70
2023-04-28T08:33:55.767Z,13.00
2023-04-28T08:36:19.312Z,13.20
2023-04-28T08:38:42.645Z,13.10
2023-04-28T08:41:06.442Z,13.00
2023-04-28T08:43:31.145Z,13.10
2023-04-28T08:45:54.776Z,13.10
2023-04-28T08:48:21.288Z,13.10
2023-04-28T08:50:51.003Z,13.00
2023-04-28T08:53:18.147Z,13.10
2023-04-28T08:55:41.577Z,13.10
2023-04-28T08:58:05.746Z,13.10
2023-04-28T09:00:30.284Z,13.20
2023-04-28T09:02:53.688Z,13.20
2023-04-28T09:05:17.263Z,13.20
2023-04-28T09:07:41.265Z,13.30
2023-04-28T09:10:26.496Z,13.60
2023-04-28T09:12:53.101Z,13.60
2023-04-28T09:15:33.983Z,13.60
2023-04-28T09:17:58.212Z,13.60
2023-04-28T09:20:22.886Z,13.60
2023-04-28T09:22:46.234Z,13.80
2023-04-28T09:25:13.377Z,13.90
2023-04-28T09:27:36.747Z,13.90
2023-04-28T09:30:00.131Z,13.90
2023-04-28T09:32:27.673Z,13.90
2023-04-28T09:34:53.785Z,13.90
2023-04-28T09:37:19.769Z,13.60
2023-04-28T09:39:43.053Z,13.80
2023-04-28T09:42:06.708Z,13.80
2023-04-28T09:44:30.032Z,13.80
2023-04-28T09:46:53.303Z,13.90
2023-04-28T09:49:17.870Z,14.00
2023-04-28T09:51:41.569Z,13.80
2023-04-28T09:54:05.393Z,13.80
2023-04-28T09:56:29.757Z,13.70
2023-04-28T09:58:55.207Z,13.60
2023-04-28T10:01:19.280Z,13.80
2023-04-28T10:03:44.356Z,13.90
2023-04-28T10:06:09.430Z,13.90
2023-04-28T10:08:32.623Z,13.80
2023-04-28T10:10:56.963Z,13.80
2023-04-28T10:13:21.177Z,13.80
2023-04-28T10:15:44.554Z,13.90
2023-04-28T10:18:08.713Z,14.00
2023-04-28T10:20:32.566Z,14.10
2023-04-28T10:23:08.442Z,14.20
2023-04-28T10:25:37.110Z,14.30
2023-04-28T10:28:02.310Z,14.30
2023-04-28T10:30:29.687Z,14.10
2023-04-28T10:33:27.362Z,14.20
2023-04-28T10:35:50.817Z,14.40
2023-04-28T10:38:17.685Z,14.20
2023-04-28T10:40:42.415Z,14.10
2023-04-28T10:43:06.671Z,14.20
2023-04-28T10:46:02.550Z,14.40
2023-04-28T10:49:06.814Z,14.20
2023-04-28T10:51:34.762Z,14.20
2023-04-28T10:54:28.205Z,14.30
2023-04-28T10:57:24.974Z,14.50
2023-04-28T10:59:50.328Z,14.50
2023-04-28T11:02:44.778Z,14.50
2023-04-28T11:05:18.821Z,14.50
2023-04-28T11:07:42.820Z,14.50
2023-04-28T11:10:09.018Z,14.50
2023-04-28T11:12:32.414Z,14.50
2023-04-28T11:14:56.139Z,14.50
2023-04-28T11:17:22.818Z,14.40
2023-04-28T11:19:48.526Z,14.30
2023-04-28T11:22:16.973Z,14.40
2023-04-28T11:24:40.553Z,14.50
2023-04-28T11:27:05.406Z,14.40
2023-04-28T11:29:37.345Z,14.50
2023-04-28T11:32:01.053Z,14.50
2023-04-28T11:34:26.841Z,14.50
2023-04-28T11:36:50.451Z,14.50
2023-04-28T11:39:15.486Z,14.70
2023-04-28T11:41:40.834Z,14.80
2023-04-28T11:44:13.554Z,14.60
2023-04-28T11:46:36.888Z,14.90
2023-04-28T11:49:05.947Z,15.00
2023-04-28T11:51:38.182Z,15.20
2023-04-28T11:54:02.576Z,15.30
2023-04-28T11:56:26.537Z,15.50
2023-04-28T11:59:05.460Z,15.50
2023-04-28T12:01:30.093Z,15.70
2023-04-28T12:03:53.470Z,15.60
2023-04-28T12:06:19.708Z,15.60
2023-04-28T12:08:43.039Z,15.70
2023-04-28T12:11:10.859Z,16.00
2023-04-28T12:13:36.275Z,16.10
2023-04-28T12:16:01.964Z,16.40
2023-04-28T12:18:26.700Z,16.50
2023-04-28T12:20:50.185Z,16.50
2023-04-28T12:23:13.501Z,16.50
2023-04-28T12:25:45.673Z,16.70
2023-04-28T12:28:10.643Z,16.80
2023-04-28T12:30:36.172Z,17.00
2023-04-28T12:32:59.534Z,16.80
2023-04-28T12:35:25.406Z,17.50
2023-04-28T12:37:48.685Z,17.60
2023-04-28T12:40:14.485Z,17.70
2023-04-28T12:42:37.956Z,17.40
2023-04-28T12:45:01.430Z,17.50
2023-04-28T12:47:24.900Z,17.90
2023-04-28T12:49:50.666Z,17.80
2023-04-28T12:52:15.466Z,17.70
2023-04-28T12:54:38.732Z,17.70
2023-04-28T12:57:02.073Z,18.00
2023-04-28T12:59:25.915Z,18.10
2023-04-28T13:01:49.549Z,18.20
2023-04-28T13:04:13.103Z,18.00
2023-04-28T13:06:36.688Z,17.60
2023-04-28T13:09:01.405Z,17.60
2023-04-28T13:11:27.179Z,17.60
2023-04-28T13:13:51.197Z,17.70
2023-04-28T13:16:15.407Z,17.80
2023-04-28T13:18:38.701Z,18.00
2023-04-28T13:21:01.968Z,18.10
2023-04-28T13:23:25.231Z,18.20
2023-04-28T13:25:49.864Z,18.30
2023-04-28T13:28:13.576Z,18.30
2023-04-28T13:30:36.857Z,18.50
2023-04-28T13:33:00.193Z,18.50
2023-04-28T13:35:23.564Z,18.10
2023-04-28T13:37:47.090Z,18.00
2023-04-28T13:40:12.228Z,18.40
2023-04-28T13:42:36.895Z,18.60
2023-04-28T13:45:00.166Z,18.50
2023-04-28T13:47:24.513Z,19.00
2023-04-28T13:49:47.873Z,18.70
2023-04-28T13:52:11.086Z,18.60
2023-04-28T13:54:34.729Z,18.50
2023-04-28T13:56:58.218Z,18.40
2023-04-28T13:59:22.863Z,18.40
2023-04-28T14:01:46.278Z,18.40
2023-04-28T14:04:09.667Z,18.60
2023-04-28T14:06:34.726Z,19.10
2023-04-28T14:08:58.227Z,19.30
2023-04-28T14:11:21.552Z,18.90
2023-04-28T14:13:44.890Z,19.20
2023-04-28T14:16:09.934Z,19.20
2023-04-28T14:18:34.419Z,19.00
2023-04-28T14:20:57.937Z,19.00
2023-04-28T14:23:21.425Z,18.70
2023-04-28T14:25:44.742Z,18.60
2023-04-28T14:28:08.052Z,18.50
2023-04-28T14:30:31.461Z,18.60
2023-04-28T14:32:56.138Z,18.50
2023-04-28T14:35:20.887Z,18.60
2023-04-28T14:37:44.893Z,18.50
2023-04-28T14:40:10.040Z,18.50
2023-04-28T14:42:36.247Z,18.50
2023-04-28T14:44:59.589Z,18.40
2023-04-28T14:47:22.947Z,18.20
2023-04-28T14:49:48.821Z,18.20
2023-04-28T14:52:12.580Z,18.00
2023-04-28T14:54:36.120Z,17.90
2023-04-28T14:57:00.098Z,17.70
2023-04-28T14:59:23.349Z,17.60
2023-04-28T15:01:47.128Z,17.50
2023-04-28T15:04:10.778Z,17.10
2023-04-28T15:06:35.517Z,17.00
2023-04-28T15:08:58.904Z,16.80
2023-04-28T15:11:22.237Z,16.90
2023-04-28T15:13:45.450Z,16.60
2023-04-28T15:16:11.266Z,16.30
2023-04-28T15:18:34.821Z,16.30
2023-04-28T15:20:58.304Z,16.00
2023-04-28T15:23:22.886Z,16.10
2023-04-28T15:25:46.695Z,15.80
2023-04-28T15:28:10.288Z,15.80
2023-04-28T15:30:33.544Z,15.90
2023-04-28T15:32:56.955Z,15.80
2023-04-28T15:35:20.518Z,15.80
2023-04-28T15:37:47.314Z,16.00
2023-04-28T15:40:14.777Z,15.90
2023-04-28T15:42:38.660Z,16.00
2023-04-28T15:45:02.890Z,16.10
2023-04-28T15:47:26.191Z,16.10
2023-04-28T15:49:50.224Z,16.20
2023-04-28T15:52:14.068Z,16.30
2023-04-28T15:54:37.304Z,16.30
2023-04-28T15:57:02.002Z,16.20
2023-04-28T15:59:25.244Z,16.20
2023-04-28T16:01:48.643Z,16.20
2023-04-28T16:04:12.007Z,16.10
2023-04-28T16:06:35.363Z,16.10
2023-04-28T16:08:58.633Z,16.00
2023-04-28T16:11:22.016Z,15.90
2023-04-28T16:13:47.032Z,16.00
2023-04-28T16:16:11.995Z,16.00
2023-04-28T16:18:35.535Z,16.00
2023-04-28T16:20:58.840Z,16.00
2023-04-28T16:23:22.309Z,16.10
2023-04-28T16:25:45.581Z,16.00
2023-04-28T16:28:08.880Z,16.00
2023-04-28T16:30:34.120Z,16.00
2023-04-28T16:32:58.498Z,16.10
2023-04-28T16:35:22.158Z,15.90
2023-04-28T16:37:45.382Z,15.80
2023-04-28T16:40:10.695Z,15.60
2023-04-28T16:42:33.888Z,15.70
2023-04-28T16:44:58.494Z,15.70
2023-04-28T16:47:23.369Z,15.60
2023-04-28T16:49:46.737Z,15.50
2023-04-28T16:52:09.986Z,15.30
2023-04-28T16:54:34.450Z,15.30
2023-04-28T16:56:57.844Z,15.20
2023-04-28T16:59:21.132Z,15.30
2023-04-28T17:01:44.907Z,15.20
2023-04-28T17:04:09.748Z,15.20
2023-04-28T17:06:33.600Z,15.20
2023-04-28T17:08:56.883Z,15.10
2023-04-28T17:11:20.114Z,15.10
2023-04-28T17:13:43.447Z,15.20
2023-04-28T17:16:07.064Z,15.20
2023-04-28T17:18:31.128Z,15.20
2023-04-28T17:20:57.677Z,15.10
2023-04-28T17:23:20.968Z,15.20
2023-04-28T17:25:44.403Z,15.10
2023-04-28T17:28:07.743Z,15.10
2023-04-28T17:30:31.135Z,15.00
2023-04-28T17:32:55.811Z,15.10
2023-04-28T17:35:19.256Z,15.00
2023-04-28T17:37:43.886Z,15.00
2023-04-28T17:40:08.711Z,15.00
2023-04-28T17:42:32.590Z,15.00
2023-04-28T17:44:55.930Z,15.00
2023-04-28T17:47:19.256Z,14.90
2023-04-28T17:49:42.526Z,14.90
2023-04-28T17:52:05.978Z,14.90
2023-04-28T17:54:32.028Z,14.80
2023-04-28T17:56:55.916Z,14.90
2023-04-28T17:59:19.227Z,14.80
2023-04-28T18:01:42.581Z,14.70
2023-04-28T18:04:05.980Z,14.60
2023-04-28T18:06:29.953Z,14.60
2023-04-28T18:08:53.227Z,14.60
2023-04-28T18:11:17.999Z,14.50
2023-04-28T18:13:41.390Z,14.60
2023-04-28T18:16:05.625Z,14.60
2023-04-28T18:18:30.661Z,14.50
2023-04-28T18:20:59.209Z,14.50
2023-04-28T18:23:23.385Z,14.50
2023-04-28T18:25:46.612Z,14.40
2023-04-28T18:28:11.448Z,14.40
2023-04-28T18:30:39.658Z,14.40
2023-04-28T18:33:02.959Z,14.40
2023-04-28T18:35:26.249Z,14.40
2023-04-28T18:37:52.013Z,14.50
2023-04-28T18:40:16.806Z,14.50
2023-04-28T18:42:40.080Z,14.40
2023-04-28T18:45:07.983Z,14.30
2023-04-28T18:47:32.002Z,14.40
2023-04-28T18:49:55.374Z,14.40
2023-04-28T18:52:18.709Z,14.40
2023-04-28T18:54:42.394Z,14.40
2023-04-28T18:57:06.576Z,14.40
2023-04-28T18:59:30.696Z,14.40
2023-04-28T19:01:55.966Z,14.40
2023-04-28T19:04:25.696Z,14.30
2023-04-28T19:06:51.109Z,14.40
2023-04-28T19:09:14.456Z,14.40
2023-04-28T19:11:37.747Z,14.40
2023-04-28T19:14:05.418Z,14.40
2023-04-28T19:16:28.861Z,14.30
2023-04-28T19:18:54.099Z,14.40
2023-04-28T19:21:17.480Z,14.40
2023-04-28T19:23:41.735Z,14.40
2023-04-28T19:26:05.108Z,14.40
2023-04-28T19:28:28.929Z,14.40
2023-04-28T19:30:52.207Z,14.50
2023-04-28T19:33:15.677Z,14.40
2023-04-28T19:35:40.415Z,14.50
2023-04-28T19:38:03.696Z,14.50
2023-04-28T19:40:28.246Z,14.40
2023-04-28T19:42:51.539Z,14.40
2023-04-28T19:45:17.003Z,14.40
2023-04-28T19:47:40.283Z,14.30
2023-04-28T19:50:05.166Z,14.30
2023-04-28T19:52:30.012Z,14.10
2023-04-28T19:54:53.592Z,14.10
2023-04-28T19:57:17.477Z,14.00
2023-04-28T19:59:41.082Z,14.00
2023-04-28T20:02:07.782Z,14.00
2023-04-28T20:04:31.204Z,14.00
2023-04-28T20:06:54.635Z,13.90
2023-04-28T20:09:19.292Z,14.00
2023-04-28T20:11:42.527Z,13.90
2023-04-28T20:14:05.804Z,13.80
2023-04-28T20:16:29.090Z,13.80
2023-04-28T20:18:52.666Z,13.90
2023-04-28T20:21:15.950Z,13.80
2023-04-28T20:23:39.256Z,13.80
2023-04-28T20:26:05.257Z,13.90
2023-04-28T20:28:28.540Z,13.80
2023-04-28T20:30:51.796Z,13.80
2023-04-28T20:33:16.056Z,13.80
2023-04-28T20:35:39.450Z,13.80
2023-04-28T20:38:02.786Z,13.70
2023-04-28T20:40:27.036Z,13.80
2023-04-28T20:42:51.829Z,13.60
2023-04-28T20:45:15.112Z,13.60
2023-04-28T20:47:38.426Z,13.50
2023-04-28T20:50:02.590Z,13.50
2023-04-28T20:52:25.850Z,13.50
2023-04-28T20:54:49.468Z,13.50
2023-04-28T20:57:12.801Z,13.50
2023-04-28T20:59:37.827Z,13.40
2023-04-28T21:02:01.275Z,13.40
2023-04-28T21:04:24.559Z,13.30
2023-04-28T21:06:50.278Z,13.30
2023-04-28T21:09:13.943Z,13.20
2023-04-28T21:11:37.258Z,13.20
2023-04-28T21:14:00.791Z,13.10
2023-04-28T21:16:25.368Z,13.10
2023-04-28T21:18:50.015Z,13.00
2023-04-28T21:21:13.729Z,13.10
2023-04-28T21:23:37.567Z,13.10
2023-04-28T21:26:00.759Z,13.00
2023-04-28T21:28:24.165Z,13.00
2023-04-28T21:30:47.454Z,13.00
2023-04-28T21:33:12.097Z,13.00
2023-04-28T21:35:36.627Z,13.00
2023-04-28T21:37:59.882Z,13.00
2023-04-28T21:40:23.319Z,13.10
2023-04-28T21:42:46.624Z,13.00
2023-04-28T21:45:11.380Z,13.00
2023-04-28T21:47:34.739Z,13.00
2023-04-28T21:49:59.357Z,13.00
2023-04-28T21:52:22.676Z,13.00
2023-04-28T21:54:45.988Z,13.00
2023-04-28T21:57:09.427Z,13.00
2023-04-28T21:59:33.341Z,13.00
2023-04-28T22:01:58.452Z,13.00
2023-04-28T22:04:21.950Z,12.90
2023-04-28T22:06:47.391Z,12.90
2023-04-28T22:09:10.644Z,12.90
2023-04-28T22:11:33.886Z,12.80
2023-04-28T22:13:57.094Z,12.80
2023-04-28T22:16:20.459Z,12.70
2023-04-28T22:18:44.119Z,12.70
2023-04-28T22:21:07.950Z,12.70
2023-04-28T22:23:32.685Z,12.70
2023-04-28T22:25:59.988Z,12.70
2023-04-28T22:28:23.428Z,12.60
2023-04-28T22:30:47.536Z,12.60
2023-04-28T22:33:11.042Z,12.50
2023-04-28T22:35:34.364Z,12.50
2023-04-28T22:37:57.591Z,12.50
2023-04-28T22:40:22.489Z,12.50
2023-04-28T22:42:46.445Z,12.50
2023-04-28T22:45:11.774Z,12.50
2023-04-28T22:47:35.534Z,12.50
2023-04-28T22:49:59.448Z,12.30
2023-04-28T22:52:23.581Z,12.40
2023-04-28T22:54:46.777Z,12.40
2023-04-28T22:57:11.576Z,12.30
2023-04-28T22:59:34.820Z,12.40
2023-04-28T23:01:58.122Z,12.40
2023-04-28T23:04:21.958Z,12.30
2023-04-28T23:06:45.423Z,12.20
2023-04-28T23:09:08.846Z,12.20
2023-04-28T23:11:32.127Z,12.10
2023-04-28T23:13:56.758Z,12.10
2023-04-28T23:16:20.074Z,12.10
2023-04-28T23:18:47.038Z,12.10
2023-04-28T23:21:10.319Z,12.20
2023-04-28T23:23:33.691Z,12.10
2023-04-28T23:25:57.004Z,12.10
2023-04-28T23:28:20.308Z,12.00
2023-04-28T23:30:45.241Z,12.00
2023-04-28T23:33:08.604Z,12.00
2023-04-28T23:35:32.877Z,12.00
2023-04-28T23:37:56.595Z,12.00
2023-04-28T23:40:20.125Z,12.00
2023-04-28T23:42:43.402Z,11.90
2023-04-28T23:45:08.443Z,11.90
2023-04-28T23:47:33.029Z,11.80
2023-04-28T23:49:56.321Z,11.80
2023-04-28T23:52:20.001Z,11.70
2023-04-28T23:54:43.284Z,11.60
2023-04-28T23:57:06.615Z,11.60
2023-04-28T23:59:29.923Z,11.50
